This is the latest recevied weather packets stored in our database for station/object IW2OBX-10. If no packets are shown the sender has not sent any weather packets the latest 10 day(s).
| Time | Temp. | Humidity | Pressure | Rain* | Wind** | Luminosity | Snow |
|---|---|---|---|---|---|---|---|
| 1778401815 | 17.78° C | 72% | 1015.6 hPa | - | - | - | - |
| 1778400914 | 18.33° C | 70% | 1015.5 hPa | - | - | - | - |
| 1778400012 | 18.33° C | 71% | 1015.5 hPa | - | - | - | - |
| 1778399111 | 18.33° C | 68% | 1015.4 hPa | - | - | - | - |
| 1778398210 | 18.33° C | 69% | 1015.3 hPa | - | - | - | - |
| 1778397308 | 18.89° C | 66% | 1015 hPa | - | - | - | - |
| 1778396407 | 18.89° C | 65% | 1014.9 hPa | - | - | - | - |
| 1778395506 | 18.89° C | 63% | 1014.6 hPa | - | - | - | - |
| 1778394604 | 18.89° C | 61% | 1014.4 hPa | - | - | - | - |
| 1778393702 | 18.89° C | 59% | 1014 hPa | - | - | - | - |
| 1778392801 | 18.89° C | 60% | 1013.8 hPa | - | - | - | - |
| 1778391900 | 18.89° C | 60% | 1013.8 hPa | - | - | - | - |
| 1778390999 | 18.33° C | 62% | 1013.8 hPa | - | - | - | - |
| 1778390098 | 18.33° C | 62% | 1013.7 hPa | - | - | - | - |
| 1778389195 | 18.33° C | 62% | 1013.7 hPa | - | - | - | - |
| 1778388294 | 18.33° C | 63% | 1013.7 hPa | - | - | - | - |
| 1778387392 | 18.33° C | 63% | 1013.8 hPa | - | - | - | - |
| 1778386490 | 18.33° C | 63% | 1013.9 hPa | - | - | - | - |
| 1778384692 | 18.33° C | 63% | 1013.9 hPa | - | - | - | - |
| 1778383792 | 18.33° C | 64% | 1014 hPa | - | - | - | - |
| 1778382868 | 18.33° C | 61% | 1014 hPa | - | - | - | - |
| 1778381969 | 18.33° C | 61% | 1014.1 hPa | - | - | - | - |
| 1778381067 | 18.33° C | 62% | 1014.2 hPa | - | - | - | - |
| 1778380169 | 18.33° C | 63% | 1014.4 hPa | - | - | - | - |
| 1778379265 | 17.78° C | 66% | 1014.8 hPa | - | - | - | - |
* Rain since midnight (hover to see other rain measurements)
** Current wind speed in m/s (hover to see current wind gust speed)